Airfield :
LOGIN :

Register | Disclaimer

   EN    FR    IT 

 










Legend :    VFR   Marginal VFR   IFR   Intensive IFR   Very Intensive IFR
Visi :
Ceiling :
>= 8 km
>= 3000ft
5 to 8 km
1000 to 3000 ft
1500m to 5 km
500 to 1000 ft
800 to 1500m
200 to 500 ft
< 800m
< 200 ft
Symbols :   Thunderstorms  Fog  Heavy snow  Heavy precipitations  Wind > 20 kt
SIGMETs :     Misc.  Thunderstorms  Icing  Turbulence  Mountain Waves  Volcanic Ashes







- Airport Elevation : 158 ft
- IATA code : QAR


EHDL - Deelen Airbase

CURRENT METAR :
  • 181155Z AUTO 24015KT 180V330 4600 SHRA FEW015CB BKN020 BKN023 07/05 Q1016 REDZ GRN

EXPIRED METARs :
  • 181125Z AUTO 23014KT 200V290 9999 SCT022 BKN026 BKN031 07/05 Q1016 REDZ WHT
  • 181055Z AUTO 23016KT 180V270 9999 DZ FEW020 BKN026 BKN031 07/04 Q1017 BLU
  • 181025Z AUTO 23014KT 180V270 9999 -RADZ FEW019 SCT026 BKN038 07/04 Q1017 BLU
  • 180955Z AUTO 23013KT 170V280 9999 DZ SCT027 BKN031 BKN036 07/04 Q1018 BLU
  • 180925Z AUTO 23013KT 190V260 9999 BKN042 OVC047 07/03 Q1018 BLU

Expired Forecast.
No reported NOTAMs for that airfield.



MET'MAP, your aeronautical weather chart ! - Copyright ORBIFLY December 2007 - Disclaimer

ORBIFLY MET'MAP TEAM :

Programming & Development : Alexandra Zaïnal
Concept & Development : Baudouin d'Aumeries
Co-Development & Prog : Marc-Olivier Méhu
Technical & hardware support : Manuel Goepfert

Contact : metmap@orbifly.com




SOURCES & CREDITS :

   NOAA